Terminal Aerodrome Forecast
Issued by NWS Mt. Holly, NJ

Home | Current Version | Previous Version | Text Only | Print | Product List | Glossary On
Versions: 1 2 3 4 5 6 7 8 9 10 11 12 13 14 15 16 17 18 19
000
FTUS41 KPHI 021725
TAFABE
TAF
KABE 021725Z 0218/0318 28007KT P6SM SCT050 SCT250
     FM030000 VRB03KT P6SM SCT250
     FM030800 00000KT 3SM BR SCT250
     FM031300 34004KT P6SM SCT030=

USA.gov is the U.S. government's official web portal to all federal, state and local government web resources and services.